This is the latest recevied weather packets stored in our database for station/object EA1FWM-12. If no packets are shown the sender has not sent any weather packets the latest 10 day(s).
| Time | Temp. | Humidity | Pressure | Rain* | Wind** | Luminosity | Snow |
|---|---|---|---|---|---|---|---|
| 1787921233 | 17.22° C | 81% | 1025 hPa | - | - | - | - |
| 1787918526 | 16.67° C | 82% | 1024.7 hPa | - | - | - | - |
| 1787914926 | 20.56° C | 75% | 1024.6 hPa | - | - | - | - |
| 1787913921 | 18.89° C | 75% | 1024.4 hPa | - | - | - | - |
| 1787913021 | 18.33° C | 75% | 1024.4 hPa | - | - | - | - |
| 1787911222 | 17.22° C | 77% | 1024.2 hPa | - | - | - | - |
| 1787909423 | 17.78° C | 79% | 1023.9 hPa | - | - | - | - |
| 1787907623 | 15.56° C | 81% | 1023.6 hPa | - | - | - | - |
| 1787905824 | 15° C | 82% | 1023.3 hPa | - | - | - | - |
| 1787904924 | 15° C | 83% | 1023 hPa | - | - | - | - |
| 1787904024 | 14.44° C | 86% | 1022.8 hPa | - | - | - | - |
| 1787902225 | 12.78° C | 90% | 1022.6 hPa | - | - | - | - |
| 1787901326 | 11.67° C | 90% | 1022.3 hPa | - | - | - | - |
| 1787900426 | 11.67° C | 90% | 1022.1 hPa | - | - | - | - |
| 1787899539 | 11.11° C | 89% | - | - | - | - | - |
| 1787899526 | 11.11° C | 89% | 1021.9 hPa | - | - | - | - |
| 1787898627 | 11.11° C | 87% | 1021.9 hPa | - | - | - | - |
| 1787896825 | 11.67° C | 85% | 1021.3 hPa | - | - | - | - |
| 1787895933 | 11.67° C | 84% | 1021 hPa | - | - | - | - |
| 1787895025 | 12.22° C | 84% | 1021.2 hPa | - | - | - | - |
| 1787894126 | 11.67° C | 85% | 1020.9 hPa | - | - | - | - |
| 1787893226 | 11.67° C | 85% | 1020.9 hPa | - | - | - | - |
| 1787891426 | 11.11° C | 86% | 1020.7 hPa | - | - | - | - |
| 1787890527 | 11.11° C | 86% | 1020.7 hPa | - | - | - | - |
| 1787889626 | 11.11° C | 86% | 1020.7 hPa | - | - | - | - |
* Rain since midnight (hover to see other rain measurements)
** Current wind speed in m/s (hover to see current wind gust speed)